createdAt,value
2023-05-16T00:00:59.621Z,4.5
2023-05-16T00:02:40.251Z,5.1
2023-05-16T00:04:20.528Z,5.1
2023-05-16T00:06:00.841Z,3.3
2023-05-16T00:07:41.248Z,4.9
2023-05-16T00:09:21.718Z,4.5
2023-05-16T00:11:02.182Z,4.2
2023-05-16T00:12:42.579Z,4.5
2023-05-16T00:14:22.940Z,3.8
2023-05-16T00:16:03.303Z,4.6
2023-05-16T00:17:43.744Z,5.1
2023-05-16T00:19:24.112Z,6.1
2023-05-16T00:21:04.560Z,4.4
2023-05-16T00:22:45.027Z,4.6
2023-05-16T00:24:25.448Z,3.4
2023-05-16T00:26:05.881Z,3.1
2023-05-16T00:27:46.255Z,4.9
2023-05-16T00:29:26.696Z,3.2
2023-05-16T00:31:07.134Z,3
2023-05-16T00:32:47.630Z,4.4
2023-05-16T00:34:28.183Z,3.7
2023-05-16T00:36:08.426Z,3.7
2023-05-16T00:37:48.803Z,4.4
2023-05-16T00:39:29.192Z,3
2023-05-16T00:41:09.606Z,2.8
2023-05-16T00:42:49.992Z,4.4
2023-05-16T00:44:30.509Z,4.7
2023-05-16T00:46:10.922Z,3.7
2023-05-16T00:47:51.494Z,2.6
2023-05-16T00:49:31.775Z,3.9
2023-05-16T00:51:12.152Z,3
2023-05-16T00:52:52.508Z,2.8
2023-05-16T00:54:32.882Z,4.4
2023-05-16T00:56:13.310Z,3.7
2023-05-16T00:57:53.841Z,4.9
2023-05-16T00:59:34.224Z,4.4
2023-05-16T01:01:14.681Z,4.9
2023-05-16T01:02:55.144Z,6.8
2023-05-16T01:04:35.458Z,5.4
2023-05-16T01:06:15.826Z,5.2
2023-05-16T01:07:56.226Z,4.4
2023-05-16T01:09:36.625Z,6.1
2023-05-16T01:11:17.100Z,6.1
2023-05-16T01:12:57.416Z,4.6
2023-05-16T01:14:37.885Z,4.3
2023-05-16T01:16:18.353Z,5.4
2023-05-16T01:17:58.818Z,6.6
2023-05-16T01:19:39.191Z,5.4
2023-05-16T01:21:19.584Z,4.3
2023-05-16T01:22:59.958Z,6
2023-05-16T01:24:40.302Z,6
2023-05-16T01:26:20.759Z,5.6
2023-05-16T01:28:01.176Z,6
2023-05-16T01:29:41.617Z,5.6
2023-05-16T01:31:22.025Z,4.9
2023-05-16T01:33:02.425Z,6
2023-05-16T01:34:42.761Z,8.5
2023-05-16T01:36:23.182Z,3.7
2023-05-16T01:38:03.591Z,5.6
2023-05-16T01:39:44.059Z,4.7
2023-05-16T01:41:24.438Z,6.7
2023-05-16T01:43:04.779Z,6
2023-05-16T01:44:45.238Z,5.1
2023-05-16T01:46:25.628Z,5.1
2023-05-16T01:48:06.104Z,4.5
2023-05-16T01:49:46.437Z,3.5
2023-05-16T01:51:26.792Z,5.6
2023-05-16T01:53:07.159Z,4.8
2023-05-16T01:54:47.587Z,3.1
2023-05-16T01:56:28.130Z,3.8
2023-05-16T01:58:08.512Z,3.1
2023-05-16T01:59:48.875Z,3.3
2023-05-16T02:01:29.400Z,2.1
2023-05-16T02:03:09.825Z,2.7
2023-05-16T02:04:50.053Z,3.8
2023-05-16T02:06:30.435Z,3.1
2023-05-16T02:08:10.885Z,3.5
2023-05-16T02:09:51.260Z,2.3
2023-05-16T02:11:31.594Z,3.3
2023-05-16T02:13:11.914Z,2.8
2023-05-16T02:14:52.390Z,2.9
2023-05-16T02:16:32.719Z,2.4
2023-05-16T02:18:13.250Z,2.8
2023-05-16T02:19:53.512Z,3.3
2023-05-16T02:21:33.927Z,3.1
2023-05-16T02:23:14.355Z,3
2023-05-16T02:24:54.777Z,4.2
2023-05-16T02:26:35.196Z,3.3
2023-05-16T02:28:15.642Z,4
2023-05-16T02:29:56.072Z,3.5
2023-05-16T02:31:36.463Z,4.2
2023-05-16T02:33:16.732Z,4
2023-05-16T02:34:57.145Z,3.7
2023-05-16T02:36:37.545Z,4.2
2023-05-16T02:38:17.929Z,4.7
2023-05-16T02:39:58.326Z,3
2023-05-16T02:41:38.764Z,3.7
2023-05-16T02:43:19.201Z,3
2023-05-16T02:44:59.559Z,3.7
2023-05-16T02:46:40.159Z,6.1
2023-05-16T02:48:20.408Z,3.9
2023-05-16T02:50:00.755Z,3.9
2023-05-16T02:51:41.195Z,5
2023-05-16T02:53:21.615Z,3.7
2023-05-16T02:55:16.824Z,5.3
2023-05-16T02:56:42.460Z,5.5
2023-05-16T02:58:22.932Z,4.7
2023-05-16T03:00:03.360Z,5.2
2023-05-16T03:01:43.830Z,5.5
2023-05-16T03:03:24.305Z,4.6
2023-05-16T03:05:04.590Z,4.9
2023-05-16T03:06:44.961Z,5.2
2023-05-16T03:08:25.410Z,3.2
2023-05-16T03:10:05.834Z,3.2
2023-05-16T03:11:46.184Z,4.4
2023-05-16T03:13:26.574Z,4.1
2023-05-16T03:15:06.920Z,3.6
2023-05-16T03:16:47.523Z,2.8
2023-05-16T03:18:27.751Z,3
2023-05-16T03:20:08.156Z,0
2023-05-16T03:21:48.529Z,0
2023-05-16T03:23:28.927Z,4.4
2023-05-16T03:25:09.257Z,4.7
2023-05-16T03:26:49.630Z,3.4
2023-05-16T03:28:30.031Z,0
2023-05-16T03:30:10.473Z,3.8
2023-05-16T03:31:50.881Z,2.8
2023-05-16T03:33:31.303Z,3.2
2023-05-16T03:35:11.812Z,3.5
2023-05-16T03:36:52.171Z,3.2
2023-05-16T03:38:32.689Z,3.9
2023-05-16T03:40:13.073Z,2.8
2023-05-16T03:41:53.479Z,2.8
2023-05-16T03:43:33.879Z,2.2
2023-05-16T03:45:14.276Z,2.2
2023-05-16T03:46:54.580Z,3.3
2023-05-16T03:48:35.065Z,3.9
2023-05-16T03:50:15.553Z,2.6
2023-05-16T03:51:55.958Z,3.3
2023-05-16T03:53:36.360Z,2.5
2023-05-16T03:55:16.740Z,3.1
2023-05-16T03:56:57.184Z,2.2
2023-05-16T03:58:37.594Z,2
2023-05-16T04:00:17.954Z,2.7
2023-05-16T04:01:58.390Z,3.2
2023-05-16T04:03:38.764Z,2.7
2023-05-16T04:05:19.121Z,2.7
2023-05-16T04:06:59.579Z,2.3
2023-05-16T04:08:40.010Z,2.3
2023-05-16T04:10:20.469Z,2.7
2023-05-16T04:12:00.921Z,2.1
2023-05-16T04:13:41.386Z,2.4
2023-05-16T04:15:21.730Z,1.8
2023-05-16T04:17:02.234Z,2.6
2023-05-16T04:18:42.651Z,3.1
2023-05-16T04:20:23.018Z,2.6
2023-05-16T04:22:03.409Z,2.4
2023-05-16T04:23:43.776Z,2.6
2023-05-16T04:25:24.344Z,2.7
2023-05-16T04:27:04.632Z,6.3
2023-05-16T04:28:45.087Z,3.7
2023-05-16T04:30:25.528Z,5.5
2023-05-16T04:32:05.961Z,5.2
2023-05-16T04:33:46.385Z,4.6
2023-05-16T04:35:27.004Z,6.4
2023-05-16T04:37:07.194Z,3.4
2023-05-16T04:38:47.570Z,3.4
2023-05-16T04:40:28.031Z,4.7
2023-05-16T04:42:08.503Z,3.8
2023-05-16T04:43:48.864Z,3.1
2023-05-16T04:45:29.488Z,5.6
2023-05-16T04:47:09.758Z,4.5
2023-05-16T04:48:50.244Z,6.6
2023-05-16T04:50:30.634Z,3.8
2023-05-16T04:52:11.112Z,5.1
2023-05-16T04:53:51.580Z,3.4
2023-05-16T04:55:31.930Z,5.1
2023-05-16T04:57:12.317Z,2.9
2023-05-16T04:58:52.748Z,4.8
2023-05-16T05:00:33.234Z,4.3
2023-05-16T05:02:13.696Z,4.1
2023-05-16T05:03:54.118Z,3.6
2023-05-16T05:05:34.678Z,4.7
2023-05-16T05:07:15.082Z,3.4
2023-05-16T05:08:55.474Z,3.4
2023-05-16T05:10:35.942Z,3.5
2023-05-16T05:12:16.416Z,4.3
2023-05-16T05:13:56.814Z,4.5
2023-05-16T05:15:37.235Z,4.3
2023-05-16T05:17:17.635Z,5.7
2023-05-16T05:18:58.142Z,5.3
2023-05-16T05:20:38.483Z,4
2023-05-16T05:22:18.941Z,3.4
2023-05-16T05:23:59.369Z,4.3
2023-05-16T05:25:39.759Z,3.8
2023-05-16T05:27:20.125Z,3.6
2023-05-16T05:29:05.268Z,3.6
2023-05-16T05:30:43.112Z,4.8
2023-05-16T05:32:21.437Z,5.3
2023-05-16T05:34:01.905Z,4
2023-05-16T05:35:42.327Z,3.6
2023-05-16T05:37:22.621Z,4.3
2023-05-16T05:39:03.020Z,3.8
2023-05-16T05:40:43.382Z,4.1
2023-05-16T05:42:23.806Z,6.1
2023-05-16T05:44:04.264Z,5.8
2023-05-16T05:45:44.749Z,4.7
2023-05-16T05:47:25.247Z,4.4
2023-05-16T05:49:05.593Z,3.5
2023-05-16T05:50:46.068Z,4.9
2023-05-16T05:52:26.463Z,4
2023-05-16T05:54:06.839Z,6.7
2023-05-16T05:55:47.294Z,4.1
2023-05-16T05:57:27.747Z,3.8
2023-05-16T05:59:08.157Z,4.7
2023-05-16T06:00:48.604Z,4.2
2023-05-16T06:02:29.098Z,4.7
2023-05-16T06:04:09.454Z,3.6
2023-05-16T06:05:49.940Z,3.7
2023-05-16T06:07:30.273Z,3.7
2023-05-16T06:09:10.650Z,4.7
2023-05-16T06:10:51.066Z,3.7
2023-05-16T06:12:31.475Z,4.2
2023-05-16T06:14:11.877Z,4.1
2023-05-16T06:15:52.331Z,3.6
2023-05-16T06:17:32.791Z,2.9
2023-05-16T06:19:13.225Z,3.9
2023-05-16T06:20:53.616Z,2.2
2023-05-16T06:22:34.041Z,4.4
2023-05-16T06:24:14.531Z,7
2023-05-16T06:25:55.030Z,6
2023-05-16T06:27:35.545Z,6.7
2023-05-16T06:29:16.015Z,6
2023-05-16T06:30:56.485Z,5.3
2023-05-16T06:32:36.881Z,5.6
2023-05-16T06:34:17.236Z,5.5
2023-05-16T06:35:57.769Z,6.9
2023-05-16T06:37:38.505Z,6.2
2023-05-16T06:39:18.724Z,7.1
2023-05-16T06:40:59.178Z,3.9
2023-05-16T06:42:39.596Z,4.7
2023-05-16T06:44:19.984Z,6
2023-05-16T06:46:00.510Z,6.1
2023-05-16T06:47:40.941Z,5.4
2023-05-16T06:49:21.400Z,5.8
2023-05-16T06:51:01.816Z,5.4
2023-05-16T06:52:42.311Z,4.9
2023-05-16T06:54:22.682Z,4.6
2023-05-16T06:56:03.071Z,5.6
2023-05-16T06:57:43.434Z,4.8
2023-05-16T06:59:24.561Z,4.7
2023-05-16T07:01:04.265Z,4.2
2023-05-16T07:02:44.716Z,5.7
2023-05-16T07:04:25.018Z,6.5
2023-05-16T07:06:05.485Z,4.5
2023-05-16T07:07:45.899Z,3.6
2023-05-16T07:09:26.369Z,7.1
2023-05-16T07:11:06.761Z,6.8
2023-05-16T07:12:47.126Z,7
2023-05-16T07:14:27.550Z,6.5
2023-05-16T07:16:08.120Z,6.8
2023-05-16T07:17:48.583Z,7.5
2023-05-16T07:19:29.000Z,5.8
2023-05-16T07:21:09.252Z,5.7
2023-05-16T07:22:49.618Z,5.3
2023-05-16T07:24:29.905Z,7.1
2023-05-16T07:26:10.414Z,7.8
2023-05-16T07:27:50.838Z,8.6
2023-05-16T07:29:31.273Z,5.7
2023-05-16T07:31:11.774Z,7.3
2023-05-16T07:32:52.231Z,8.4
2023-05-16T07:34:32.588Z,7.8
2023-05-16T07:36:16.835Z,7
2023-05-16T07:37:53.394Z,7.1
2023-05-16T07:39:33.716Z,8.8
2023-05-16T07:41:14.218Z,7.2
2023-05-16T07:42:54.597Z,7.2
2023-05-16T07:44:35.041Z,6
2023-05-16T07:46:15.462Z,6
2023-05-16T07:47:55.854Z,4.8
2023-05-16T07:49:36.208Z,8.6
2023-05-16T07:51:16.653Z,8.3
2023-05-16T07:52:56.985Z,4.4
2023-05-16T07:54:37.373Z,8.5
2023-05-16T07:56:17.844Z,5.5
2023-05-16T07:57:58.382Z,8.1
2023-05-16T07:59:38.881Z,5.2
2023-05-16T08:01:19.177Z,5.8
2023-05-16T08:02:59.670Z,4.7
2023-05-16T08:04:39.913Z,6.3
2023-05-16T08:06:20.245Z,2
2023-05-16T08:08:00.607Z,1.3
2023-05-16T08:09:41.005Z,6.7
2023-05-16T08:11:21.404Z,3.7
2023-05-16T08:13:01.793Z,2.8
2023-05-16T08:14:42.218Z,7.4
2023-05-16T08:16:22.626Z,3.9
2023-05-16T08:18:03.035Z,4.2
2023-05-16T08:19:43.482Z,4.5
2023-05-16T08:21:23.912Z,4.4
2023-05-16T08:23:04.296Z,5.7
2023-05-16T08:24:44.730Z,5.4
2023-05-16T08:26:25.095Z,6.2
2023-05-16T08:28:05.571Z,6.2
2023-05-16T08:29:45.967Z,6.4
2023-05-16T08:31:26.475Z,6.4
2023-05-16T08:33:06.957Z,0
2023-05-16T08:34:47.283Z,0.286
2023-05-16T08:36:27.657Z,0.326
2023-05-16T08:38:08.061Z,3.6
2023-05-16T08:39:48.474Z,4.3
2023-05-16T08:41:28.898Z,2.7
2023-05-16T08:43:09.319Z,3.3
2023-05-16T08:49:06.718Z,3.3
2023-05-16T08:50:47.099Z,4.9
2023-05-16T08:52:27.452Z,4.3
2023-05-16T08:54:07.935Z,4.7
2023-05-16T08:55:48.300Z,5.2
2023-05-16T08:57:28.522Z,6.9
2023-05-16T08:59:08.918Z,4.8
2023-05-16T09:00:49.386Z,3
2023-05-16T09:02:29.712Z,0
2023-05-16T09:04:10.234Z,0.451
2023-05-16T09:05:50.557Z,1.07
2023-05-16T09:07:31.001Z,4.7
2023-05-16T09:09:11.475Z,5.2
2023-05-16T09:10:51.951Z,4.4
2023-05-16T09:12:32.495Z,6.6
2023-05-16T09:14:12.899Z,4
2023-05-16T09:15:53.307Z,2.6
2023-05-16T09:17:39.633Z,2.3
2023-05-16T09:19:14.211Z,4.4
2023-05-16T09:20:54.519Z,3.3
2023-05-16T09:22:34.897Z,1.6
2023-05-16T09:24:15.251Z,3.1
2023-05-16T09:25:55.687Z,2.8
2023-05-16T09:27:36.097Z,3.9
2023-05-16T09:29:16.558Z,4.8
2023-05-16T09:30:56.897Z,4.9
2023-05-16T09:32:37.305Z,3
2023-05-16T09:34:17.731Z,5.6
2023-05-16T09:35:58.155Z,5.5
2023-05-16T09:37:38.635Z,5.9
2023-05-16T09:39:18.956Z,6.5
2023-05-16T09:40:59.277Z,6
2023-05-16T09:42:39.696Z,3.7
2023-05-16T09:44:20.230Z,3.6
2023-05-16T09:46:00.757Z,1.4
2023-05-16T09:47:41.169Z,2.4
2023-05-16T09:49:21.584Z,2.1
2023-05-16T09:51:02.542Z,3.8
2023-05-16T09:52:42.458Z,4.9
2023-05-16T09:54:22.902Z,1.7
2023-05-16T09:56:03.216Z,4.7
2023-05-16T09:57:43.636Z,3.2
2023-05-16T09:59:24.068Z,4.3
2023-05-16T10:01:04.591Z,3
2023-05-16T10:02:45.049Z,5.4
2023-05-16T10:04:25.461Z,6.3
2023-05-16T10:06:05.771Z,3.9
2023-05-16T10:07:46.072Z,3.9
2023-05-16T10:09:26.595Z,2.9
2023-05-16T10:11:07.132Z,3.9
2023-05-16T10:12:47.522Z,6.4
2023-05-16T10:14:27.906Z,5.8
2023-05-16T10:16:08.598Z,2.4
2023-05-16T10:17:48.826Z,6.6
2023-05-16T10:19:29.329Z,4.5
2023-05-16T10:21:11.607Z,5.7
2023-05-16T10:22:50.164Z,5.1
2023-05-16T10:24:30.601Z,4.4
2023-05-16T10:26:11.036Z,3.3
2023-05-16T10:27:51.491Z,1.7
2023-05-16T10:29:40.056Z,2.3
2023-05-16T10:31:12.453Z,2.2
2023-05-16T10:32:52.927Z,2.6
2023-05-16T10:34:33.244Z,3.2
2023-05-16T10:36:13.645Z,2.7
2023-05-16T10:37:54.024Z,1.1
2023-05-16T10:39:34.432Z,5.2
2023-05-16T10:41:14.846Z,2.1
2023-05-16T10:42:55.286Z,4
2023-05-16T10:44:35.688Z,4.9
2023-05-16T10:46:16.174Z,4.3
2023-05-16T10:47:56.631Z,1.7
2023-05-16T10:49:36.994Z,2.9
2023-05-16T10:51:17.565Z,2
2023-05-16T10:52:57.914Z,0.538
2023-05-16T10:54:38.368Z,0.679
2023-05-16T10:56:18.817Z,6.1
2023-05-16T10:57:59.243Z,0.877
2023-05-16T10:59:39.695Z,0.62
2023-05-16T11:01:20.227Z,0.361
2023-05-16T11:03:00.780Z,8
2023-05-16T11:04:41.030Z,7.2
2023-05-16T11:06:23.540Z,0.791
2023-05-16T11:08:01.862Z,0.289
2023-05-16T11:09:42.313Z,0.526
2023-05-16T11:11:22.740Z,0.431
2023-05-16T11:13:03.171Z,0.37
2023-05-16T11:14:43.743Z,0.038
2023-05-16T11:16:24.189Z,0.385
2023-05-16T11:18:04.678Z,0.454
2023-05-16T11:19:45.048Z,4.4
2023-05-16T11:21:25.397Z,4.4
2023-05-16T11:23:05.873Z,4.4
2023-05-16T11:24:46.286Z,6.3
2023-05-16T11:26:26.717Z,5.1
2023-05-16T11:28:07.133Z,3.1
2023-05-16T11:29:47.568Z,5.2
2023-05-16T11:31:28.101Z,3.4
2023-05-16T11:33:08.546Z,4.5
2023-05-16T11:34:48.876Z,4.3
2023-05-16T11:36:29.370Z,3.4
2023-05-16T11:38:10.785Z,2.6
2023-05-16T11:39:50.281Z,5.3
2023-05-16T11:41:30.671Z,3.8
2023-05-16T11:43:11.119Z,3.5
2023-05-16T11:44:51.553Z,6.4
2023-05-16T11:46:31.942Z,3.7
2023-05-16T11:48:19.007Z,5.2
2023-05-16T11:49:52.655Z,6.5
2023-05-16T11:51:33.010Z,5.9
2023-05-16T11:53:13.574Z,5.4
2023-05-16T11:54:53.962Z,2.8
2023-05-16T11:56:34.329Z,0.29
2023-05-16T11:58:14.709Z,0.712
2023-05-16T11:59:55.049Z,0
2023-05-16T12:01:35.575Z,0.297
2023-05-16T12:03:16.069Z,1.117
2023-05-16T12:04:56.462Z,0
2023-05-16T12:06:36.882Z,0.561
2023-05-16T12:08:17.282Z,0.374
2023-05-16T12:09:57.740Z,0.051
2023-05-16T12:11:38.148Z,1.267
2023-05-16T12:13:20.441Z,0.219
2023-05-16T12:14:59.003Z,0.798
2023-05-16T12:16:39.546Z,0.207
2023-05-16T12:18:19.979Z,0.544
2023-05-16T12:20:00.409Z,0.23
2023-05-16T12:21:40.796Z,0.398
2023-05-16T12:23:21.304Z,5.8
2023-05-16T12:25:01.716Z,0.774
2023-05-16T12:26:42.110Z,0.798
2023-05-16T12:28:22.566Z,1.355
2023-05-16T12:30:02.984Z,1.466
2023-05-16T12:31:43.381Z,1.006
2023-05-16T12:33:23.816Z,0.538
2023-05-16T12:35:04.157Z,1.213
2023-05-16T12:36:44.602Z,1.204
2023-05-16T12:38:25.040Z,1.14
2023-05-16T12:40:05.438Z,7.1
2023-05-16T12:41:45.905Z,6.2
2023-05-16T12:43:26.349Z,0.112
2023-05-16T12:45:06.815Z,10
2023-05-16T12:46:47.267Z,1.033
2023-05-16T12:48:27.695Z,9.1
2023-05-16T12:50:08.139Z,0.958
2023-05-16T12:51:48.592Z,0
2023-05-16T12:53:29.018Z,0.037
2023-05-16T12:55:09.488Z,0
2023-05-16T12:56:50.010Z,1.142
2023-05-16T12:58:30.567Z,0.297
2023-05-16T13:00:10.835Z,0
2023-05-16T13:01:51.262Z,0
2023-05-16T13:03:33.912Z,0.384
2023-05-16T13:05:12.033Z,0
2023-05-16T13:08:32.839Z,0
2023-05-16T13:10:13.268Z,1.12
2023-05-16T13:11:53.714Z,0.209
2023-05-16T13:13:36.536Z,0.717
2023-05-16T13:15:14.596Z,0
2023-05-16T13:16:54.956Z,0.794
2023-05-16T13:18:35.419Z,0.931
2023-05-16T13:20:15.927Z,0.628
2023-05-16T13:21:56.370Z,1.419
2023-05-16T13:23:36.745Z,0.031
2023-05-16T13:25:17.164Z,0.516
2023-05-16T13:26:57.592Z,0.606
2023-05-16T13:28:38.039Z,0.713
2023-05-16T13:30:18.501Z,0.632
2023-05-16T13:31:58.953Z,1.968
2023-05-16T13:33:39.261Z,6.6
2023-05-16T13:35:19.719Z,3.7
2023-05-16T13:37:00.227Z,4.7
2023-05-16T13:38:40.541Z,6.9
2023-05-16T13:40:21.006Z,9.1
2023-05-16T13:42:01.408Z,7.7
2023-05-16T13:43:42.129Z,8
2023-05-16T13:45:22.280Z,8
2023-05-16T13:47:02.733Z,5.3
2023-05-16T13:48:43.172Z,7.1
2023-05-16T13:50:23.589Z,6.4
2023-05-16T13:52:03.977Z,5.3
2023-05-16T13:53:44.393Z,4.1
2023-05-16T13:55:24.923Z,5.5
2023-05-16T13:57:05.290Z,5.1
2023-05-16T13:58:59.756Z,5.1
2023-05-16T14:00:42.822Z,5.2
2023-05-16T14:02:06.835Z,3.5
2023-05-16T14:03:47.250Z,0.209
2023-05-16T14:05:27.699Z,0.32
2023-05-16T14:07:08.084Z,0.371
2023-05-16T14:08:48.454Z,0.881
2023-05-16T14:10:29.135Z,0.941
2023-05-16T14:12:09.314Z,0.885
2023-05-16T14:13:49.712Z,0.603
2023-05-16T14:15:30.651Z,1.888
2023-05-16T14:17:10.544Z,1.558
2023-05-16T14:18:51.027Z,2.085
2023-05-16T14:20:31.363Z,0.616
2023-05-16T14:22:11.822Z,0.21
2023-05-16T14:23:52.276Z,0.464
2023-05-16T14:25:32.671Z,0
2023-05-16T14:27:13.044Z,0
2023-05-16T14:28:53.493Z,0.4
2023-05-16T14:30:33.849Z,0
2023-05-16T14:32:14.469Z,0.469
2023-05-16T14:33:54.662Z,0.628
2023-05-16T14:35:35.144Z,0.041
2023-05-16T14:37:15.532Z,0.046
2023-05-16T14:38:55.894Z,0.712
2023-05-16T14:40:36.353Z,0
2023-05-16T14:42:16.767Z,0
2023-05-16T14:43:57.273Z,0.296
2023-05-16T14:45:37.709Z,0
2023-05-16T14:47:18.120Z,0.031
2023-05-16T14:48:58.523Z,0
2023-05-16T14:50:38.917Z,0
2023-05-16T14:52:19.312Z,0.45
2023-05-16T14:53:59.747Z,0.74
2023-05-16T14:55:40.100Z,0.123
2023-05-16T14:56:12.587Z,0.455
2023-05-16T14:57:59.229Z,0.081
2023-05-16T14:59:33.362Z,0.417
2023-05-16T15:01:13.789Z,0
2023-05-16T15:02:54.221Z,0.383
2023-05-16T15:04:34.689Z,0
2023-05-16T15:06:15.128Z,1.25
2023-05-16T15:07:55.587Z,0.388
2023-05-16T15:09:36.004Z,0
2023-05-16T15:11:16.505Z,0
2023-05-16T15:12:56.883Z,0
2023-05-16T15:14:37.377Z,0.287
2023-05-16T15:16:17.766Z,0
2023-05-16T15:17:58.233Z,0.205
2023-05-16T15:19:38.616Z,0.371
2023-05-16T15:21:19.097Z,0.455
2023-05-16T15:22:59.488Z,0.212
2023-05-16T15:24:39.978Z,0.444
2023-05-16T15:26:20.307Z,0.544
2023-05-16T15:28:00.800Z,0
2023-05-16T15:29:41.293Z,0.625
2023-05-16T15:31:21.646Z,1.132
2023-05-16T15:33:02.127Z,0.447
2023-05-16T15:34:42.485Z,2.969
2023-05-16T15:36:22.944Z,0.891
2023-05-16T15:38:03.607Z,0.037
2023-05-16T15:39:44.031Z,0
2023-05-16T15:41:50.110Z,0
2023-05-16T15:43:04.776Z,0.037
2023-05-16T15:44:45.209Z,0.185
2023-05-16T15:46:25.777Z,0.034
2023-05-16T15:48:06.176Z,0.135
2023-05-16T15:49:46.560Z,0
2023-05-16T15:51:27.016Z,0.391
2023-05-16T15:53:07.440Z,0.118
2023-05-16T15:54:47.820Z,0.291
2023-05-16T15:56:28.237Z,0.118
2023-05-16T15:58:08.613Z,0.445
2023-05-16T15:59:49.015Z,1.045
2023-05-16T16:01:29.527Z,0.131
2023-05-16T16:03:09.980Z,0.689
2023-05-16T16:04:50.275Z,0.545
2023-05-16T16:06:30.664Z,0.041
2023-05-16T16:08:11.090Z,0.959
2023-05-16T16:09:51.475Z,0.202
2023-05-16T16:11:31.864Z,0.132
2023-05-16T16:13:12.313Z,0.536
2023-05-16T16:14:52.735Z,0.371
2023-05-16T16:16:33.290Z,0.314
2023-05-16T16:18:13.642Z,1.733
2023-05-16T16:19:54.063Z,0.367
2023-05-16T16:21:34.524Z,0.207
2023-05-16T16:23:14.958Z,0.452
2023-05-16T16:24:56.151Z,0
2023-05-16T16:26:35.646Z,0.291
2023-05-16T16:28:16.037Z,0
2023-05-16T16:29:56.452Z,0.539
2023-05-16T16:31:36.806Z,0
2023-05-16T16:33:17.234Z,0.571
2023-05-16T16:34:57.691Z,0.32
2023-05-16T16:36:37.979Z,0.91
2023-05-16T16:38:18.397Z,0.116
2023-05-16T16:39:58.827Z,0
2023-05-16T16:41:39.160Z,0.616
2023-05-16T16:43:19.622Z,0.536
2023-05-16T16:45:00.184Z,0
2023-05-16T16:46:40.776Z,0.037
2023-05-16T16:48:21.041Z,0.207
2023-05-16T16:50:01.507Z,0
2023-05-16T16:51:41.996Z,0.118
2023-05-16T16:53:22.452Z,0.548
2023-05-16T16:55:02.879Z,0
2023-05-16T16:56:43.298Z,0
2023-05-16T16:58:23.699Z,1.456
2023-05-16T17:00:04.136Z,0.714
2023-05-16T17:01:44.711Z,0
2023-05-16T17:03:25.115Z,0.205
2023-05-16T17:05:05.468Z,0.546
2023-05-16T17:06:47.838Z,0.536
2023-05-16T17:08:26.343Z,0.45
2023-05-16T17:10:06.809Z,0.619
2023-05-16T17:11:47.220Z,0.44
2023-05-16T17:13:27.714Z,1.038
2023-05-16T17:15:08.168Z,0.619
2023-05-16T17:16:48.590Z,0.336
2023-05-16T17:18:29.000Z,0.203
2023-05-16T17:20:09.339Z,0.364
2023-05-16T17:21:49.751Z,0
2023-05-16T17:23:30.129Z,0.442
2023-05-16T17:25:10.632Z,0.827
2023-05-16T17:26:50.932Z,0.536
2023-05-16T17:28:31.336Z,0.29
2023-05-16T17:30:11.755Z,0
2023-05-16T17:31:52.244Z,0.623
2023-05-16T17:33:32.728Z,0
2023-05-16T17:35:13.216Z,0
2023-05-16T17:36:53.670Z,0
2023-05-16T17:38:34.126Z,0
2023-05-16T17:40:14.523Z,0
2023-05-16T17:41:54.898Z,0.336
2023-05-16T17:43:35.378Z,0
2023-05-16T17:45:15.834Z,0
2023-05-16T17:46:56.313Z,0.168
2023-05-16T17:48:36.687Z,0
2023-05-16T17:50:17.159Z,0.035
2023-05-16T17:51:57.585Z,0
2023-05-16T17:53:37.979Z,0.118
2023-05-16T17:55:18.417Z,0.293
2023-05-16T17:56:58.796Z,0.123
2023-05-16T17:58:39.265Z,0.031
2023-05-16T18:00:19.648Z,0
2023-05-16T18:02:00.142Z,0.375
2023-05-16T18:03:40.688Z,0.299
2023-05-16T18:05:21.069Z,0
2023-05-16T18:07:01.418Z,0.138
2023-05-16T18:08:41.957Z,0
2023-05-16T18:10:22.436Z,0
2023-05-16T18:12:02.917Z,0.519
2023-05-16T18:13:43.330Z,0.534
2023-05-16T18:15:23.723Z,0
2023-05-16T18:17:04.114Z,0.032
2023-05-16T18:18:44.546Z,0.031
2023-05-16T18:20:25.048Z,0
2023-05-16T18:22:05.497Z,0
2023-05-16T18:23:46.017Z,0
2023-05-16T18:25:26.856Z,0
2023-05-16T18:27:06.820Z,0
2023-05-16T18:28:47.232Z,0
2023-05-16T18:30:27.619Z,0
2023-05-16T18:32:07.991Z,0
2023-05-16T18:33:48.396Z,0
2023-05-16T18:35:29.025Z,0.196
2023-05-16T18:37:09.266Z,0
2023-05-16T18:38:49.815Z,0
2023-05-16T18:40:30.172Z,0.209
2023-05-16T18:42:10.585Z,0
2023-05-16T18:43:50.933Z,0.358
2023-05-16T18:45:31.170Z,0.311
2023-05-16T18:47:11.619Z,0.689
2023-05-16T18:48:52.047Z,4.9
2023-05-16T18:50:32.400Z,4.9
2023-05-16T18:52:12.878Z,5.2
2023-05-16T18:53:53.373Z,4.9
2023-05-16T18:55:33.826Z,6.4
2023-05-16T18:57:14.182Z,7.9
2023-05-16T18:58:54.523Z,6.4
2023-05-16T19:00:35.049Z,7.1
2023-05-16T19:02:15.336Z,5.4
2023-05-16T19:03:56.017Z,5.7
2023-05-16T19:05:36.374Z,6.3
2023-05-16T19:07:16.626Z,5.7
2023-05-16T19:08:57.049Z,5.1
2023-05-16T19:10:37.512Z,6.6
2023-05-16T19:12:17.937Z,6.3
2023-05-16T19:13:58.366Z,5.3
2023-05-16T19:15:38.728Z,6.3
2023-05-16T19:17:19.252Z,5.4
2023-05-16T19:18:59.775Z,5.9
2023-05-16T19:20:40.191Z,4.7
2023-05-16T19:22:20.638Z,8
2023-05-16T19:24:01.010Z,5.9
2023-05-16T19:25:41.382Z,5.5
2023-05-16T19:27:21.839Z,5.1
2023-05-16T19:29:02.250Z,5.1
2023-05-16T19:30:42.641Z,5.7
2023-05-16T19:32:23.056Z,5.7
2023-05-16T19:34:03.461Z,6.1
2023-05-16T19:35:43.915Z,5.6
2023-05-16T19:37:24.343Z,6.7
2023-05-16T19:39:04.747Z,6
2023-05-16T19:40:45.134Z,5.4
2023-05-16T19:42:25.542Z,5.3
2023-05-16T19:44:05.963Z,5.6
2023-05-16T19:45:46.383Z,4.8
2023-05-16T19:47:26.802Z,7.7
2023-05-16T19:49:07.240Z,5.3
2023-05-16T19:50:47.603Z,5.2
2023-05-16T19:52:27.919Z,6.2
2023-05-16T19:54:08.337Z,4.4
2023-05-16T19:55:48.757Z,5.2
2023-05-16T19:57:29.301Z,6.1
2023-05-16T19:59:09.813Z,6.3
2023-05-16T20:00:50.235Z,7.5
2023-05-16T20:02:30.520Z,6.5
2023-05-16T20:04:11.124Z,6.8
2023-05-16T20:05:51.355Z,7.5
2023-05-16T20:07:31.718Z,6.5
2023-05-16T20:09:12.109Z,5.7
2023-05-16T20:10:52.464Z,6.3
2023-05-16T20:12:32.838Z,5.4
2023-05-16T20:14:13.212Z,5.4
2023-05-16T20:15:53.701Z,6.6
2023-05-16T20:17:34.150Z,4
2023-05-16T20:19:14.539Z,5.9
2023-05-16T20:20:55.818Z,4
2023-05-16T20:22:35.316Z,4.2
2023-05-16T20:24:15.703Z,4.4
2023-05-16T20:25:56.151Z,5
2023-05-16T20:27:36.633Z,4.2
2023-05-16T20:29:17.025Z,5.2
2023-05-16T20:30:57.383Z,4.4
2023-05-16T20:32:37.889Z,5.5
2023-05-16T20:34:18.165Z,4.7
2023-05-16T20:35:58.659Z,5.8
2023-05-16T20:37:39.088Z,5.8
2023-05-16T20:39:19.460Z,4.6
2023-05-16T20:40:59.835Z,5.2
2023-05-16T20:42:40.323Z,4.3
2023-05-16T20:44:20.701Z,4.9
2023-05-16T20:46:01.148Z,6
2023-05-16T20:47:41.706Z,5.7
2023-05-16T20:49:21.966Z,4.3
2023-05-16T20:51:02.468Z,4.8
2023-05-16T20:52:42.835Z,5.2
2023-05-16T20:54:23.268Z,5
2023-05-16T20:56:03.672Z,6.2
2023-05-16T20:57:44.108Z,5.6
2023-05-16T20:59:24.456Z,3.9
2023-05-16T21:01:04.906Z,4.4
2023-05-16T21:02:45.348Z,3.9
2023-05-16T21:04:25.597Z,4.1
2023-05-16T21:06:06.074Z,4.6
2023-05-16T21:07:46.323Z,4.1
2023-05-16T21:09:26.674Z,3.3
2023-05-16T21:11:07.111Z,0.027
2023-05-16T21:12:47.524Z,0
2023-05-16T21:14:27.942Z,0
2023-05-16T21:16:08.344Z,3.8
2023-05-16T21:17:48.921Z,3.7
2023-05-16T21:19:29.358Z,4.2
2023-05-16T21:21:09.691Z,0
2023-05-16T21:22:50.134Z,0
2023-05-16T21:24:30.575Z,4.7
2023-05-16T21:26:10.985Z,5.5
2023-05-16T21:27:51.363Z,5.2
2023-05-16T21:29:31.891Z,5.2
2023-05-16T21:31:12.292Z,5.2
2023-05-16T21:32:52.793Z,5.8
2023-05-16T21:34:33.179Z,4.7
2023-05-16T21:36:13.580Z,6.8
2023-05-16T21:37:53.981Z,4.9
2023-05-16T21:39:34.380Z,6.1
2023-05-16T21:41:14.805Z,4.9
2023-05-16T21:42:55.191Z,5.2
2023-05-16T21:44:35.652Z,5.8
2023-05-16T21:46:16.045Z,5.2
2023-05-16T21:47:56.491Z,6.4
2023-05-16T21:49:36.916Z,5.7
2023-05-16T21:51:17.078Z,5.8
2023-05-16T21:52:57.496Z,6.1
2023-05-16T21:54:37.876Z,5.4
2023-05-16T21:56:18.406Z,4.5
2023-05-16T21:57:58.760Z,5.4
2023-05-16T21:59:39.138Z,4.5
2023-05-16T22:01:19.549Z,4.3
2023-05-16T22:03:00.103Z,4.2
2023-05-16T22:04:40.466Z,4
2023-05-16T22:06:20.891Z,4.2
2023-05-16T22:08:01.236Z,3.3
2023-05-16T22:09:41.608Z,4.3
2023-05-16T22:11:22.000Z,4.3
2023-05-16T22:13:02.410Z,5
2023-05-16T22:14:42.844Z,4
2023-05-16T22:16:23.230Z,3
2023-05-16T22:18:03.708Z,3
2023-05-16T22:19:44.227Z,2.4
2023-05-16T22:21:24.499Z,2.2
2023-05-16T22:23:04.844Z,2.2
2023-05-16T22:24:45.260Z,1.7
2023-05-16T22:26:25.620Z,2.4
2023-05-16T22:28:06.043Z,1.8
2023-05-16T22:29:46.400Z,1.6
2023-05-16T22:31:26.834Z,1.9
2023-05-16T22:33:07.330Z,1.9
2023-05-16T22:34:47.562Z,2.3
2023-05-16T22:36:28.009Z,1.6
2023-05-16T22:38:08.425Z,1.8
2023-05-16T22:39:48.805Z,1.4
2023-05-16T22:41:29.229Z,1.3
2023-05-16T22:43:09.619Z,1.4
2023-05-16T22:44:50.016Z,1.5
2023-05-16T22:46:30.452Z,1.3
2023-05-16T22:48:10.945Z,1.3
2023-05-16T22:49:51.249Z,1.8
2023-05-16T22:51:31.628Z,1.3
2023-05-16T22:53:12.038Z,1.3
2023-05-16T22:54:52.417Z,1.3
2023-05-16T22:56:32.886Z,0.9
2023-05-16T22:58:13.309Z,1
2023-05-16T22:59:53.794Z,1
2023-05-16T23:01:34.256Z,0.9
2023-05-16T23:03:14.814Z,1